Post Falls, Idaho
Current Conditions -  °F | °C
As of 12:15 AM on Monday 26 Jan 2015 (Local Time) from KCOE Reporting Station
Overcast Overcast  
Wind Chill: 28°   Ceiling: 200
Heat Index: 36°   Visibility: 0.5mi
Dew Point: 34°   Wind: 10mph
Humidity: 93%   Direction: 40°NE
Pressure: 30.15"   Gusts: NA
Location:  47.71°N, 116.94°W
Report Text: KCOE 260815Z AUTO 04009KT 1/2SM OVC002 02/01 A3015 RMK AO1
Loading
Personal Weather Stations






























Interactive Weather Map New forecast layout! Learn more

10-Day Weather Forecast

Advertisements
Track Severe Weather on mobile